Terminal Aerodrome Forecast
Issued by NWS

Home | Current Version | Previous Version | Text Only | Print | Product List | Glossary On
Versions: 1 2 3 4 5 6 7 8 9 10 11 12 13 14 15 16 17 18 19 20 21
000
FTUS41 KGYX 271125
TAFHIE
TAF
KHIE 271125Z 2712/2812 32005KT 5SM -SN BR SCT015 OVC045
      TEMPO 2712/2714 BKN015
     FM271700 32004KT P6SM -SHSN OVC050=

USA.gov is the U.S. government's official web portal to all federal, state and local government web resources and services.